CEB714 RPVB-RPLL
Flight info
| Callsign | CEB714 |
|---|---|
| Flight time | N/A |
| Altitude | 30000 |
| Route | GLA2A GALIA TR8 KLO TR19 MINOR B473 LAIYA LAIYA3R |
| Aircraft | A320/M-SDE3FGHIRWY/LB1 |
Departure
| Time | 2026-05-04 16:14 |
|---|---|
| Airport | Bacolod-Silay International Airport (RPVB) |
Arrival
| Time | N/A |
|---|---|
| Airport | Ninoy Aquino International Airport (RPLL) |
| Time | Latitude | Longitude | Altitude | Speed | Heading |
|---|---|---|---|---|---|
| 2026-05-04 15:47 | 10.77641 | 123.01539 | 85 ft | 0 kts | 299° |
| 2026-05-04 15:59 | 10.77639 | 123.01544 | 87 ft | 2 kts | 298° |
| 2026-05-04 15:59 | 10.77631 | 123.01559 | 86 ft | 2 kts | 298° |
| 2026-05-04 15:59 | 10.77623 | 123.01574 | 86 ft | 2 kts | 296° |
| 2026-05-04 16:00 | 10.77616 | 123.01589 | 84 ft | 2 kts | 290° |
| 2026-05-04 16:00 | 10.77612 | 123.01605 | 87 ft | 2 kts | 269° |
| 2026-05-04 16:00 | 10.77617 | 123.01620 | 83 ft | 2 kts | 213° |
| 2026-05-04 16:00 | 10.77621 | 123.01622 | 86 ft | 0 kts | 210° |
| 2026-05-04 16:08 | 10.77619 | 123.01621 | 85 ft | 1 kts | 210° |
| 2026-05-04 16:08 | 10.77593 | 123.01606 | 84 ft | 7 kts | 209° |
| 2026-05-04 16:09 | 10.77522 | 123.01565 | 88 ft | 5 kts | 210° |
| 2026-05-04 16:09 | 10.77410 | 123.01505 | 86 ft | 12 kts | 188° |
| 2026-05-04 16:10 | 10.77320 | 123.01593 | 86 ft | 8 kts | 120° |
| 2026-05-04 16:11 | 10.77160 | 123.01611 | 87 ft | 7 kts | 210° |
| 2026-05-04 16:11 | 10.77122 | 123.01589 | 88 ft | 6 kts | 210° |
| 2026-05-04 16:12 | 10.76934 | 123.01494 | 87 ft | 10 kts | 206° |
| 2026-05-04 16:12 | 10.76934 | 123.01480 | 88 ft | 4 kts | 36° |
| 2026-05-04 16:13 | 10.77178 | 123.01622 | 86 ft | 76 kts | 30° |
| 2026-05-04 16:13 | 10.78752 | 123.02557 | 486 ft | 162 kts | 33° |
| 2026-05-04 16:14 | 10.80902 | 123.03725 | 1839 ft | 180 kts | 26° |
| 2026-05-04 16:14 | 10.83383 | 123.04846 | 2848 ft | 210 kts | 26° |
| 2026-05-04 16:15 | 10.88064 | 123.06009 | 4499 ft | 262 kts | 349° |
| 2026-05-04 16:16 | 10.91113 | 123.03832 | 6044 ft | 283 kts | 302° |
| 2026-05-04 16:16 | 10.93589 | 122.98215 | 8464 ft | 297 kts | 295° |
| 2026-05-04 16:17 | 10.95258 | 122.94316 | 10033 ft | 305 kts | 294° |
| 2026-05-04 16:18 | 10.98764 | 122.88665 | 11436 ft | 340 kts | 324° |
| 2026-05-04 16:18 | 11.00708 | 122.87229 | 11915 ft | 350 kts | 326° |
| 2026-05-04 16:19 | 11.06718 | 122.82758 | 13826 ft | 363 kts | 325° |
| 2026-05-04 16:19 | 11.10832 | 122.79678 | 14971 ft | 370 kts | 325° |
| 2026-05-04 16:20 | 11.17121 | 122.74956 | 16686 ft | 379 kts | 325° |
| 2026-05-04 16:20 | 11.21402 | 122.71754 | 17791 ft | 385 kts | 325° |
| 2026-05-04 16:21 | 11.25013 | 122.69053 | 18634 ft | 390 kts | 325° |